sensor_id;sensor_type;location;lat;lon;timestamp;P1;durP1;ratioP1;P2;durP2;ratioP2
13477;SDS011;12598;62.382;17.344;2023-04-30T00:00:11;0.70;;;0.60;;
13477;SDS011;12598;62.382;17.344;2023-04-30T00:01:13;0.77;;;0.60;;
13477;SDS011;12598;62.382;17.344;2023-04-30T00:02:15;0.55;;;0.55;;
13477;SDS011;12598;62.382;17.344;2023-04-30T00:03:17;1.30;;;0.80;;
13477;SDS011;12598;62.382;17.344;2023-04-30T00:04:19;0.65;;;0.65;;
13477;SDS011;12598;62.382;17.344;2023-04-30T00:05:21;1.02;;;0.68;;
13477;SDS011;12598;62.382;17.344;2023-04-30T00:06:23;0.68;;;0.60;;
13477;SDS011;12598;62.382;17.344;2023-04-30T00:07:28;0.70;;;0.70;;
13477;SDS011;12598;62.382;17.344;2023-04-30T00:08:30;0.80;;;0.70;;
13477;SDS011;12598;62.382;17.344;2023-04-30T00:09:32;0.52;;;0.50;;
13477;SDS011;12598;62.382;17.344;2023-04-30T00:10:34;0.50;;;0.50;;
13477;SDS011;12598;62.382;17.344;2023-04-30T00:11:35;0.80;;;0.60;;
13477;SDS011;12598;62.382;17.344;2023-04-30T00:12:37;0.55;;;0.55;;
13477;SDS011;12598;62.382;17.344;2023-04-30T00:13:39;1.10;;;0.50;;
13477;SDS011;12598;62.382;17.344;2023-04-30T00:14:43;0.60;;;0.60;;
13477;SDS011;12598;62.382;17.344;2023-04-30T00:15:45;0.90;;;0.60;;
13477;SDS011;12598;62.382;17.344;2023-04-30T00:16:47;0.77;;;0.60;;
13477;SDS011;12598;62.382;17.344;2023-04-30T00:17:49;0.50;;;0.40;;
13477;SDS011;12598;62.382;17.344;2023-04-30T00:18:50;0.60;;;0.40;;
13477;SDS011;12598;62.382;17.344;2023-04-30T00:19:52;0.73;;;0.60;;
13477;SDS011;12598;62.382;17.344;2023-04-30T00:20:55;0.77;;;0.50;;
13477;SDS011;12598;62.382;17.344;2023-04-30T00:21:57;0.70;;;0.70;;
13477;SDS011;12598;62.382;17.344;2023-04-30T00:23:02;0.60;;;0.60;;
13477;SDS011;12598;62.382;17.344;2023-04-30T00:24:03;0.68;;;0.68;;
13477;SDS011;12598;62.382;17.344;2023-04-30T00:25:06;1.17;;;0.60;;
13477;SDS011;12598;62.382;17.344;2023-04-30T00:26:08;0.98;;;0.60;;
13477;SDS011;12598;62.382;17.344;2023-04-30T00:27:10;1.13;;;0.70;;
13477;SDS011;12598;62.382;17.344;2023-04-30T00:28:12;0.77;;;0.65;;
13477;SDS011;12598;62.382;17.344;2023-04-30T00:29:14;0.70;;;0.70;;
13477;SDS011;12598;62.382;17.344;2023-04-30T00:30:16;0.68;;;0.52;;
13477;SDS011;12598;62.382;17.344;2023-04-30T00:31:18;0.98;;;0.88;;
13477;SDS011;12598;62.382;17.344;2023-04-30T00:32:20;0.60;;;0.60;;
13477;SDS011;12598;62.382;17.344;2023-04-30T00:33:22;0.70;;;0.50;;
13477;SDS011;12598;62.382;17.344;2023-04-30T00:34:24;1.95;;;0.60;;
13477;SDS011;12598;62.382;17.344;2023-04-30T00:35:26;0.75;;;0.75;;
13477;SDS011;12598;62.382;17.344;2023-04-30T00:36:28;0.85;;;0.60;;
13477;SDS011;12598;62.382;17.344;2023-04-30T00:37:30;2.15;;;0.73;;
13477;SDS011;12598;62.382;17.344;2023-04-30T00:38:32;0.75;;;0.70;;
13477;SDS011;12598;62.382;17.344;2023-04-30T00:39:34;0.60;;;0.60;;
13477;SDS011;12598;62.382;17.344;2023-04-30T00:40:36;1.15;;;0.70;;
13477;SDS011;12598;62.382;17.344;2023-04-30T00:41:39;0.73;;;0.68;;
13477;SDS011;12598;62.382;17.344;2023-04-30T00:42:41;0.50;;;0.50;;
13477;SDS011;12598;62.382;17.344;2023-04-30T00:43:43;0.77;;;0.70;;
13477;SDS011;12598;62.382;17.344;2023-04-30T00:44:47;1.30;;;0.80;;
13477;SDS011;12598;62.382;17.344;2023-04-30T00:45:49;0.70;;;0.60;;
13477;SDS011;12598;62.382;17.344;2023-04-30T00:46:51;0.88;;;0.70;;
13477;SDS011;12598;62.382;17.344;2023-04-30T00:47:53;0.80;;;0.60;;
13477;SDS011;12598;62.382;17.344;2023-04-30T00:48:55;1.65;;;0.57;;
13477;SDS011;12598;62.382;17.344;2023-04-30T00:49:57;0.85;;;0.50;;
13477;SDS011;12598;62.382;17.344;2023-04-30T00:51:01;0.85;;;0.70;;
13477;SDS011;12598;62.382;17.344;2023-04-30T00:52:04;0.55;;;0.55;;
13477;SDS011;12598;62.382;17.344;2023-04-30T00:53:06;0.65;;;0.65;;
13477;SDS011;12598;62.382;17.344;2023-04-30T00:54:08;1.30;;;0.70;;
13477;SDS011;12598;62.382;17.344;2023-04-30T00:55:10;0.55;;;0.55;;
13477;SDS011;12598;62.382;17.344;2023-04-30T00:56:13;0.50;;;0.50;;
13477;SDS011;12598;62.382;17.344;2023-04-30T00:57:16;1.30;;;0.90;;
13477;SDS011;12598;62.382;17.344;2023-04-30T00:58:18;0.63;;;0.63;;
13477;SDS011;12598;62.382;17.344;2023-04-30T00:59:20;0.90;;;0.73;;
13477;SDS011;12598;62.382;17.344;2023-04-30T01:00:23;1.08;;;0.98;;
13477;SDS011;12598;62.382;17.344;2023-04-30T01:01:26;0.70;;;0.60;;
13477;SDS011;12598;62.382;17.344;2023-04-30T01:02:32;0.70;;;0.60;;
13477;SDS011;12598;62.382;17.344;2023-04-30T01:03:34;0.52;;;0.52;;
13477;SDS011;12598;62.382;17.344;2023-04-30T01:04:37;0.70;;;0.68;;
13477;SDS011;12598;62.382;17.344;2023-04-30T01:05:39;0.75;;;0.75;;
13477;SDS011;12598;62.382;17.344;2023-04-30T01:06:41;0.63;;;0.55;;
13477;SDS011;12598;62.382;17.344;2023-04-30T01:07:44;0.70;;;0.68;;
13477;SDS011;12598;62.382;17.344;2023-04-30T01:08:47;0.63;;;0.63;;
13477;SDS011;12598;62.382;17.344;2023-04-30T01:09:49;0.73;;;0.70;;
13477;SDS011;12598;62.382;17.344;2023-04-30T01:12:24;0.98;;;0.65;;
13477;SDS011;12598;62.382;17.344;2023-04-30T01:13:28;1.40;;;0.70;;
13477;SDS011;12598;62.382;17.344;2023-04-30T01:16:07;0.60;;;0.60;;
13477;SDS011;12598;62.382;17.344;2023-04-30T01:17:19;1.00;;;0.80;;
13477;SDS011;12598;62.382;17.344;2023-04-30T01:18:30;1.50;;;0.60;;
13477;SDS011;12598;62.382;17.344;2023-04-30T01:19:42;0.60;;;0.60;;
13477;SDS011;12598;62.382;17.344;2023-04-30T01:20:49;1.50;;;0.60;;
13477;SDS011;12598;62.382;17.344;2023-04-30T01:21:58;0.90;;;0.70;;
13477;SDS011;12598;62.382;17.344;2023-04-30T01:24:36;0.93;;;0.52;;
13477;SDS011;12598;62.382;17.344;2023-04-30T01:26:04;0.47;;;0.35;;
13477;SDS011;12598;62.382;17.344;2023-04-30T01:27:22;0.80;;;0.80;;
13477;SDS011;12598;62.382;17.344;2023-04-30T01:28:30;1.38;;;0.80;;
13477;SDS011;12598;62.382;17.344;2023-04-30T01:29:36;0.63;;;0.63;;
13477;SDS011;12598;62.382;17.344;2023-04-30T01:30:40;0.88;;;0.50;;
13477;SDS011;12598;62.382;17.344;2023-04-30T01:31:47;0.85;;;0.63;;
13477;SDS011;12598;62.382;17.344;2023-04-30T01:32:49;0.70;;;0.63;;
13477;SDS011;12598;62.382;17.344;2023-04-30T01:33:50;0.65;;;0.65;;
13477;SDS011;12598;62.382;17.344;2023-04-30T01:34:53;0.60;;;0.60;;
13477;SDS011;12598;62.382;17.344;2023-04-30T01:37:23;0.57;;;0.47;;
13477;SDS011;12598;62.382;17.344;2023-04-30T01:38:41;0.55;;;0.55;;
13477;SDS011;12598;62.382;17.344;2023-04-30T01:41:25;1.30;;;0.60;;
13477;SDS011;12598;62.382;17.344;2023-04-30T01:45:12;0.52;;;0.50;;
13477;SDS011;12598;62.382;17.344;2023-04-30T01:46:21;0.65;;;0.60;;
13477;SDS011;12598;62.382;17.344;2023-04-30T01:52:51;1.83;;;0.80;;
13477;SDS011;12598;62.382;17.344;2023-04-30T01:53:56;0.80;;;0.65;;
13477;SDS011;12598;62.382;17.344;2023-04-30T01:55:00;0.70;;;0.60;;
13477;SDS011;12598;62.382;17.344;2023-04-30T01:56:26;0.57;;;0.40;;
13477;SDS011;12598;62.382;17.344;2023-04-30T01:57:33;0.50;;;0.50;;
13477;SDS011;12598;62.382;17.344;2023-04-30T01:58:43;0.60;;;0.50;;
13477;SDS011;12598;62.382;17.344;2023-04-30T01:59:48;0.77;;;0.60;;
13477;SDS011;12598;62.382;17.344;2023-04-30T02:00:50;0.80;;;0.50;;
13477;SDS011;12598;62.382;17.344;2023-04-30T02:01:52;0.60;;;0.55;;
13477;SDS011;12598;62.382;17.344;2023-04-30T02:02:54;1.10;;;0.70;;
13477;SDS011;12598;62.382;17.344;2023-04-30T02:03:57;0.77;;;0.60;;
13477;SDS011;12598;62.382;17.344;2023-04-30T02:05:00;0.57;;;0.40;;
13477;SDS011;12598;62.382;17.344;2023-04-30T02:06:02;0.90;;;0.50;;
13477;SDS011;12598;62.382;17.344;2023-04-30T02:07:03;0.80;;;0.63;;
13477;SDS011;12598;62.382;17.344;2023-04-30T02:08:06;1.02;;;0.75;;
13477;SDS011;12598;62.382;17.344;2023-04-30T02:09:08;0.45;;;0.45;;
13477;SDS011;12598;62.382;17.344;2023-04-30T02:10:11;0.70;;;0.55;;
13477;SDS011;12598;62.382;17.344;2023-04-30T02:11:13;0.60;;;0.50;;
13477;SDS011;12598;62.382;17.344;2023-04-30T02:12:14;0.47;;;0.47;;
13477;SDS011;12598;62.382;17.344;2023-04-30T02:13:16;0.98;;;0.68;;
13477;SDS011;12598;62.382;17.344;2023-04-30T02:14:18;1.33;;;0.80;;
13477;SDS011;12598;62.382;17.344;2023-04-30T02:15:20;0.95;;;0.63;;
13477;SDS011;12598;62.382;17.344;2023-04-30T02:16:22;1.10;;;0.57;;
13477;SDS011;12598;62.382;17.344;2023-04-30T02:17:24;0.70;;;0.50;;
13477;SDS011;12598;62.382;17.344;2023-04-30T02:18:27;0.75;;;0.70;;
13477;SDS011;12598;62.382;17.344;2023-04-30T02:19:28;0.93;;;0.60;;
13477;SDS011;12598;62.382;17.344;2023-04-30T02:20:32;0.93;;;0.60;;
13477;SDS011;12598;62.382;17.344;2023-04-30T02:21:34;0.45;;;0.38;;
13477;SDS011;12598;62.382;17.344;2023-04-30T02:22:36;0.43;;;0.40;;
13477;SDS011;12598;62.382;17.344;2023-04-30T02:23:38;0.50;;;0.50;;
13477;SDS011;12598;62.382;17.344;2023-04-30T02:24:41;0.85;;;0.73;;
13477;SDS011;12598;62.382;17.344;2023-04-30T02:25:43;0.77;;;0.60;;
13477;SDS011;12598;62.382;17.344;2023-04-30T02:26:45;0.57;;;0.52;;
13477;SDS011;12598;62.382;17.344;2023-04-30T02:27:47;0.75;;;0.60;;
13477;SDS011;12598;62.382;17.344;2023-04-30T02:28:51;0.52;;;0.47;;
13477;SDS011;12598;62.382;17.344;2023-04-30T02:29:53;0.57;;;0.50;;
13477;SDS011;12598;62.382;17.344;2023-04-30T02:30:55;0.52;;;0.47;;
13477;SDS011;12598;62.382;17.344;2023-04-30T02:31:57;0.50;;;0.40;;
13477;SDS011;12598;62.382;17.344;2023-04-30T02:33:00;0.65;;;0.52;;
13477;SDS011;12598;62.382;17.344;2023-04-30T02:34:03;1.10;;;0.57;;
13477;SDS011;12598;62.382;17.344;2023-04-30T02:35:05;0.60;;;0.60;;
13477;SDS011;12598;62.382;17.344;2023-04-30T02:36:07;0.55;;;0.55;;
13477;SDS011;12598;62.382;17.344;2023-04-30T02:37:09;1.20;;;0.60;;
13477;SDS011;12598;62.382;17.344;2023-04-30T02:38:12;0.45;;;0.40;;
13477;SDS011;12598;62.382;17.344;2023-04-30T02:39:14;0.93;;;0.55;;
13477;SDS011;12598;62.382;17.344;2023-04-30T02:40:16;0.50;;;0.40;;
13477;SDS011;12598;62.382;17.344;2023-04-30T02:41:17;0.50;;;0.40;;
13477;SDS011;12598;62.382;17.344;2023-04-30T02:42:19;0.47;;;0.47;;
13477;SDS011;12598;62.382;17.344;2023-04-30T02:43:21;0.35;;;0.35;;
13477;SDS011;12598;62.382;17.344;2023-04-30T02:44:23;0.30;;;0.30;;
13477;SDS011;12598;62.382;17.344;2023-04-30T02:45:25;1.38;;;0.50;;
13477;SDS011;12598;62.382;17.344;2023-04-30T02:46:27;0.63;;;0.50;;
13477;SDS011;12598;62.382;17.344;2023-04-30T02:47:29;0.60;;;0.60;;
13477;SDS011;12598;62.382;17.344;2023-04-30T02:48:31;0.70;;;0.50;;
13477;SDS011;12598;62.382;17.344;2023-04-30T02:49:33;0.85;;;0.55;;
13477;SDS011;12598;62.382;17.344;2023-04-30T02:50:35;1.65;;;0.60;;
13477;SDS011;12598;62.382;17.344;2023-04-30T02:51:37;0.55;;;0.40;;
13477;SDS011;12598;62.382;17.344;2023-04-30T02:52:39;0.90;;;0.60;;
13477;SDS011;12598;62.382;17.344;2023-04-30T02:53:40;0.50;;;0.50;;
13477;SDS011;12598;62.382;17.344;2023-04-30T02:54:42;0.52;;;0.40;;
13477;SDS011;12598;62.382;17.344;2023-04-30T02:55:44;1.00;;;0.50;;
13477;SDS011;12598;62.382;17.344;2023-04-30T02:56:46;0.60;;;0.60;;
13477;SDS011;12598;62.382;17.344;2023-04-30T02:57:48;0.88;;;0.50;;
13477;SDS011;12598;62.382;17.344;2023-04-30T02:58:50;0.75;;;0.50;;
13477;SDS011;12598;62.382;17.344;2023-04-30T02:59:52;0.50;;;0.50;;
13477;SDS011;12598;62.382;17.344;2023-04-30T03:00:54;0.38;;;0.30;;
13477;SDS011;12598;62.382;17.344;2023-04-30T03:01:56;0.50;;;0.40;;
13477;SDS011;12598;62.382;17.344;2023-04-30T03:02:58;0.70;;;0.50;;
13477;SDS011;12598;62.382;17.344;2023-04-30T03:04:01;0.57;;;0.40;;
13477;SDS011;12598;62.382;17.344;2023-04-30T03:05:04;0.35;;;0.32;;
13477;SDS011;12598;62.382;17.344;2023-04-30T03:06:06;0.70;;;0.57;;
13477;SDS011;12598;62.382;17.344;2023-04-30T03:07:08;0.70;;;0.60;;
13477;SDS011;12598;62.382;17.344;2023-04-30T03:08:10;0.40;;;0.40;;
13477;SDS011;12598;62.382;17.344;2023-04-30T03:09:13;0.40;;;0.40;;
13477;SDS011;12598;62.382;17.344;2023-04-30T03:10:15;1.05;;;0.50;;
13477;SDS011;12598;62.382;17.344;2023-04-30T03:11:19;0.47;;;0.40;;
13477;SDS011;12598;62.382;17.344;2023-04-30T03:12:21;0.50;;;0.50;;
13477;SDS011;12598;62.382;17.344;2023-04-30T03:13:23;0.55;;;0.40;;
13477;SDS011;12598;62.382;17.344;2023-04-30T03:14:28;0.60;;;0.40;;
13477;SDS011;12598;62.382;17.344;2023-04-30T03:15:33;1.15;;;0.70;;
13477;SDS011;12598;62.382;17.344;2023-04-30T03:16:35;0.50;;;0.50;;
13477;SDS011;12598;62.382;17.344;2023-04-30T03:17:37;0.45;;;0.45;;
13477;SDS011;12598;62.382;17.344;2023-04-30T03:18:39;0.60;;;0.40;;
13477;SDS011;12598;62.382;17.344;2023-04-30T03:19:41;0.85;;;0.40;;
13477;SDS011;12598;62.382;17.344;2023-04-30T03:20:43;0.40;;;0.40;;
13477;SDS011;12598;62.382;17.344;2023-04-30T03:21:44;0.40;;;0.40;;
13477;SDS011;12598;62.382;17.344;2023-04-30T03:22:46;0.43;;;0.40;;
13477;SDS011;12598;62.382;17.344;2023-04-30T03:23:48;0.50;;;0.40;;
13477;SDS011;12598;62.382;17.344;2023-04-30T03:24:50;1.80;;;0.70;;
13477;SDS011;12598;62.382;17.344;2023-04-30T03:25:52;0.55;;;0.55;;
13477;SDS011;12598;62.382;17.344;2023-04-30T03:26:55;0.73;;;0.50;;
13477;SDS011;12598;62.382;17.344;2023-04-30T03:27:57;1.10;;;0.50;;
13477;SDS011;12598;62.382;17.344;2023-04-30T03:28:59;0.57;;;0.30;;
13477;SDS011;12598;62.382;17.344;2023-04-30T03:30:02;0.90;;;0.50;;
13477;SDS011;12598;62.382;17.344;2023-04-30T03:31:04;0.60;;;0.43;;
13477;SDS011;12598;62.382;17.344;2023-04-30T03:32:06;1.02;;;0.60;;
13477;SDS011;12598;62.382;17.344;2023-04-30T03:33:08;1.67;;;0.50;;
13477;SDS011;12598;62.382;17.344;2023-04-30T03:34:10;1.38;;;0.50;;
13477;SDS011;12598;62.382;17.344;2023-04-30T03:35:12;1.10;;;0.50;;
13477;SDS011;12598;62.382;17.344;2023-04-30T03:36:14;0.50;;;0.40;;
13477;SDS011;12598;62.382;17.344;2023-04-30T03:37:16;0.50;;;0.40;;
13477;SDS011;12598;62.382;17.344;2023-04-30T03:38:18;0.50;;;0.32;;
13477;SDS011;12598;62.382;17.344;2023-04-30T03:39:20;0.88;;;0.40;;
13477;SDS011;12598;62.382;17.344;2023-04-30T03:40:23;0.68;;;0.60;;
13477;SDS011;12598;62.382;17.344;2023-04-30T03:41:25;0.50;;;0.40;;
13477;SDS011;12598;62.382;17.344;2023-04-30T03:42:27;0.82;;;0.40;;
13477;SDS011;12598;62.382;17.344;2023-04-30T03:43:29;0.38;;;0.30;;
13477;SDS011;12598;62.382;17.344;2023-04-30T03:44:31;0.60;;;0.50;;
13477;SDS011;12598;62.382;17.344;2023-04-30T03:45:33;1.48;;;0.50;;
13477;SDS011;12598;62.382;17.344;2023-04-30T03:46:35;0.30;;;0.30;;
13477;SDS011;12598;62.382;17.344;2023-04-30T03:47:37;0.30;;;0.30;;
13477;SDS011;12598;62.382;17.344;2023-04-30T03:48:39;1.20;;;0.50;;
13477;SDS011;12598;62.382;17.344;2023-04-30T03:49:41;0.28;;;0.22;;
13477;SDS011;12598;62.382;17.344;2023-04-30T03:50:42;0.40;;;0.30;;
13477;SDS011;12598;62.382;17.344;2023-04-30T03:51:46;0.60;;;0.47;;
13477;SDS011;12598;62.382;17.344;2023-04-30T03:52:47;0.32;;;0.30;;
13477;SDS011;12598;62.382;17.344;2023-04-30T03:53:50;0.90;;;0.50;;
13477;SDS011;12598;62.382;17.344;2023-04-30T03:54:51;0.47;;;0.47;;
13477;SDS011;12598;62.382;17.344;2023-04-30T03:55:53;0.60;;;0.50;;
13477;SDS011;12598;62.382;17.344;2023-04-30T03:56:56;0.50;;;0.32;;
13477;SDS011;12598;62.382;17.344;2023-04-30T03:57:58;0.32;;;0.32;;
13477;SDS011;12598;62.382;17.344;2023-04-30T03:59:00;0.65;;;0.30;;
13477;SDS011;12598;62.382;17.344;2023-04-30T04:00:05;1.33;;;0.50;;
13477;SDS011;12598;62.382;17.344;2023-04-30T04:01:13;0.95;;;0.40;;
13477;SDS011;12598;62.382;17.344;2023-04-30T04:02:15;1.15;;;0.40;;
13477;SDS011;12598;62.382;17.344;2023-04-30T04:03:17;0.50;;;0.40;;
13477;SDS011;12598;62.382;17.344;2023-04-30T04:04:19;0.45;;;0.30;;
13477;SDS011;12598;62.382;17.344;2023-04-30T04:05:21;0.50;;;0.30;;
13477;SDS011;12598;62.382;17.344;2023-04-30T04:06:23;0.60;;;0.55;;
13477;SDS011;12598;62.382;17.344;2023-04-30T04:07:25;0.60;;;0.28;;
13477;SDS011;12598;62.382;17.344;2023-04-30T04:08:26;0.55;;;0.32;;
13477;SDS011;12598;62.382;17.344;2023-04-30T04:09:28;0.60;;;0.40;;
13477;SDS011;12598;62.382;17.344;2023-04-30T04:10:30;0.47;;;0.28;;
13477;SDS011;12598;62.382;17.344;2023-04-30T04:11:33;0.20;;;0.20;;
13477;SDS011;12598;62.382;17.344;2023-04-30T04:12:35;0.70;;;0.40;;
13477;SDS011;12598;62.382;17.344;2023-04-30T04:13:37;0.47;;;0.20;;
13477;SDS011;12598;62.382;17.344;2023-04-30T04:14:39;1.13;;;0.25;;
13477;SDS011;12598;62.382;17.344;2023-04-30T04:15:41;0.40;;;0.40;;
13477;SDS011;12598;62.382;17.344;2023-04-30T04:16:44;0.88;;;0.38;;
13477;SDS011;12598;62.382;17.344;2023-04-30T04:17:46;0.57;;;0.28;;
13477;SDS011;12598;62.382;17.344;2023-04-30T04:18:48;0.30;;;0.30;;
13477;SDS011;12598;62.382;17.344;2023-04-30T04:19:50;0.85;;;0.32;;
13477;SDS011;12598;62.382;17.344;2023-04-30T04:20:53;0.60;;;0.50;;
13477;SDS011;12598;62.382;17.344;2023-04-30T04:21:56;0.45;;;0.35;;
13477;SDS011;12598;62.382;17.344;2023-04-30T04:22:58;0.82;;;0.30;;
13477;SDS011;12598;62.382;17.344;2023-04-30T04:24:00;0.30;;;0.20;;
13477;SDS011;12598;62.382;17.344;2023-04-30T04:25:08;0.40;;;0.30;;
13477;SDS011;12598;62.382;17.344;2023-04-30T04:26:12;0.40;;;0.30;;
13477;SDS011;12598;62.382;17.344;2023-04-30T04:27:15;0.73;;;0.40;;
13477;SDS011;12598;62.382;17.344;2023-04-30T04:28:17;0.45;;;0.22;;
13477;SDS011;12598;62.382;17.344;2023-04-30T04:29:19;0.75;;;0.30;;
13477;SDS011;12598;62.382;17.344;2023-04-30T04:30:21;0.40;;;0.30;;
13477;SDS011;12598;62.382;17.344;2023-04-30T04:31:24;0.75;;;0.30;;
13477;SDS011;12598;62.382;17.344;2023-04-30T04:32:27;2.25;;;0.40;;
13477;SDS011;12598;62.382;17.344;2023-04-30T04:33:30;0.90;;;0.40;;
13477;SDS011;12598;62.382;17.344;2023-04-30T04:34:32;0.52;;;0.35;;
13477;SDS011;12598;62.382;17.344;2023-04-30T04:35:34;0.40;;;0.30;;
13477;SDS011;12598;62.382;17.344;2023-04-30T04:36:36;0.52;;;0.40;;
13477;SDS011;12598;62.382;17.344;2023-04-30T04:37:38;0.55;;;0.40;;
13477;SDS011;12598;62.382;17.344;2023-04-30T04:38:39;0.20;;;0.20;;
13477;SDS011;12598;62.382;17.344;2023-04-30T04:39:42;0.32;;;0.30;;
13477;SDS011;12598;62.382;17.344;2023-04-30T04:40:52;0.40;;;0.38;;
13477;SDS011;12598;62.382;17.344;2023-04-30T04:41:55;0.40;;;0.30;;
13477;SDS011;12598;62.382;17.344;2023-04-30T04:42:59;0.50;;;0.40;;
13477;SDS011;12598;62.382;17.344;2023-04-30T04:44:01;0.82;;;0.40;;
13477;SDS011;12598;62.382;17.344;2023-04-30T04:45:07;0.70;;;0.40;;
13477;SDS011;12598;62.382;17.344;2023-04-30T04:46:10;0.30;;;0.30;;
13477;SDS011;12598;62.382;17.344;2023-04-30T04:47:14;1.30;;;0.40;;
13477;SDS011;12598;62.382;17.344;2023-04-30T04:48:17;0.88;;;0.30;;
13477;SDS011;12598;62.382;17.344;2023-04-30T04:49:19;0.43;;;0.40;;
13477;SDS011;12598;62.382;17.344;2023-04-30T04:50:21;0.47;;;0.30;;
13477;SDS011;12598;62.382;17.344;2023-04-30T04:51:23;0.40;;;0.40;;
13477;SDS011;12598;62.382;17.344;2023-04-30T04:52:25;0.85;;;0.45;;
13477;SDS011;12598;62.382;17.344;2023-04-30T04:53:27;0.47;;;0.45;;
13477;SDS011;12598;62.382;17.344;2023-04-30T04:54:29;0.80;;;0.32;;
13477;SDS011;12598;62.382;17.344;2023-04-30T04:55:31;0.75;;;0.20;;
13477;SDS011;12598;62.382;17.344;2023-04-30T04:56:33;0.45;;;0.30;;
13477;SDS011;12598;62.382;17.344;2023-04-30T04:57:35;0.88;;;0.20;;
13477;SDS011;12598;62.382;17.344;2023-04-30T04:58:37;1.15;;;0.30;;
13477;SDS011;12598;62.382;17.344;2023-04-30T04:59:39;0.50;;;0.30;;
13477;SDS011;12598;62.382;17.344;2023-04-30T05:00:41;1.23;;;0.35;;
13477;SDS011;12598;62.382;17.344;2023-04-30T05:01:43;0.20;;;0.20;;
13477;SDS011;12598;62.382;17.344;2023-04-30T05:02:45;0.70;;;0.38;;
13477;SDS011;12598;62.382;17.344;2023-04-30T05:03:47;0.73;;;0.30;;
13477;SDS011;12598;62.382;17.344;2023-04-30T05:04:52;0.40;;;0.22;;
13477;SDS011;12598;62.382;17.344;2023-04-30T05:05:54;0.32;;;0.30;;
13477;SDS011;12598;62.382;17.344;2023-04-30T05:06:56;0.50;;;0.30;;
13477;SDS011;12598;62.382;17.344;2023-04-30T05:07:58;0.47;;;0.20;;
13477;SDS011;12598;62.382;17.344;2023-04-30T05:09:00;0.40;;;0.30;;
13477;SDS011;12598;62.382;17.344;2023-04-30T05:10:03;0.50;;;0.25;;
13477;SDS011;12598;62.382;17.344;2023-04-30T05:11:05;0.40;;;0.30;;
13477;SDS011;12598;62.382;17.344;2023-04-30T05:12:07;0.20;;;0.20;;
13477;SDS011;12598;62.382;17.344;2023-04-30T05:13:09;0.55;;;0.30;;
13477;SDS011;12598;62.382;17.344;2023-04-30T05:14:11;1.88;;;0.40;;
13477;SDS011;12598;62.382;17.344;2023-04-30T05:15:13;0.85;;;0.30;;
13477;SDS011;12598;62.382;17.344;2023-04-30T05:16:15;0.50;;;0.35;;
13477;SDS011;12598;62.382;17.344;2023-04-30T05:17:17;1.40;;;0.30;;
13477;SDS011;12598;62.382;17.344;2023-04-30T05:18:19;0.40;;;0.30;;
13477;SDS011;12598;62.382;17.344;2023-04-30T05:19:21;0.95;;;0.43;;
13477;SDS011;12598;62.382;17.344;2023-04-30T05:20:23;0.45;;;0.30;;
13477;SDS011;12598;62.382;17.344;2023-04-30T05:21:24;1.17;;;0.30;;
13477;SDS011;12598;62.382;17.344;2023-04-30T05:22:30;0.35;;;0.35;;
13477;SDS011;12598;62.382;17.344;2023-04-30T05:23:31;1.48;;;0.40;;
13477;SDS011;12598;62.382;17.344;2023-04-30T05:24:33;0.50;;;0.20;;
13477;SDS011;12598;62.382;17.344;2023-04-30T05:25:35;0.50;;;0.30;;
13477;SDS011;12598;62.382;17.344;2023-04-30T05:26:37;0.80;;;0.30;;
13477;SDS011;12598;62.382;17.344;2023-04-30T05:27:39;0.63;;;0.20;;
13477;SDS011;12598;62.382;17.344;2023-04-30T05:28:41;2.60;;;0.50;;
13477;SDS011;12598;62.382;17.344;2023-04-30T05:29:43;1.33;;;0.30;;
13477;SDS011;12598;62.382;17.344;2023-04-30T05:30:45;0.73;;;0.35;;
13477;SDS011;12598;62.382;17.344;2023-04-30T05:31:47;1.45;;;0.30;;
13477;SDS011;12598;62.382;17.344;2023-04-30T05:32:48;0.82;;;0.30;;
13477;SDS011;12598;62.382;17.344;2023-04-30T05:33:52;0.70;;;0.20;;
13477;SDS011;12598;62.382;17.344;2023-04-30T05:34:54;0.70;;;0.35;;
13477;SDS011;12598;62.382;17.344;2023-04-30T05:35:56;0.85;;;0.30;;
13477;SDS011;12598;62.382;17.344;2023-04-30T05:36:58;1.25;;;0.38;;
13477;SDS011;12598;62.382;17.344;2023-04-30T05:38:00;2.70;;;0.45;;
13477;SDS011;12598;62.382;17.344;2023-04-30T05:39:03;0.90;;;0.30;;
13477;SDS011;12598;62.382;17.344;2023-04-30T05:40:05;0.98;;;0.32;;
13477;SDS011;12598;62.382;17.344;2023-04-30T05:41:10;1.00;;;0.32;;
13477;SDS011;12598;62.382;17.344;2023-04-30T05:42:13;0.73;;;0.30;;
13477;SDS011;12598;62.382;17.344;2023-04-30T05:43:14;0.75;;;0.50;;
13477;SDS011;12598;62.382;17.344;2023-04-30T05:44:16;1.63;;;0.60;;
13477;SDS011;12598;62.382;17.344;2023-04-30T05:45:18;0.85;;;0.50;;
13477;SDS011;12598;62.382;17.344;2023-04-30T05:46:20;1.60;;;0.70;;
13477;SDS011;12598;62.382;17.344;2023-04-30T05:47:22;0.55;;;0.22;;
13477;SDS011;12598;62.382;17.344;2023-04-30T05:48:24;0.40;;;0.30;;
13477;SDS011;12598;62.382;17.344;2023-04-30T05:49:26;0.88;;;0.30;;
13477;SDS011;12598;62.382;17.344;2023-04-30T05:50:28;2.08;;;0.68;;
13477;SDS011;12598;62.382;17.344;2023-04-30T05:51:30;0.47;;;0.30;;
13477;SDS011;12598;62.382;17.344;2023-04-30T05:52:32;1.38;;;0.40;;
13477;SDS011;12598;62.382;17.344;2023-04-30T05:53:34;0.82;;;0.45;;
13477;SDS011;12598;62.382;17.344;2023-04-30T05:54:36;0.85;;;0.30;;
13477;SDS011;12598;62.382;17.344;2023-04-30T05:55:38;0.85;;;0.40;;
13477;SDS011;12598;62.382;17.344;2023-04-30T05:56:40;0.60;;;0.40;;
13477;SDS011;12598;62.382;17.344;2023-04-30T05:57:42;1.13;;;0.30;;
13477;SDS011;12598;62.382;17.344;2023-04-30T05:58:44;1.15;;;0.57;;
13477;SDS011;12598;62.382;17.344;2023-04-30T05:59:46;0.28;;;0.20;;
13477;SDS011;12598;62.382;17.344;2023-04-30T06:00:48;0.98;;;0.30;;
13477;SDS011;12598;62.382;17.344;2023-04-30T06:01:52;0.98;;;0.30;;
13477;SDS011;12598;62.382;17.344;2023-04-30T06:02:54;0.60;;;0.30;;
13477;SDS011;12598;62.382;17.344;2023-04-30T06:03:56;0.40;;;0.28;;
13477;SDS011;12598;62.382;17.344;2023-04-30T06:04:59;1.42;;;0.32;;
13477;SDS011;12598;62.382;17.344;2023-04-30T06:06:02;0.30;;;0.22;;
13477;SDS011;12598;62.382;17.344;2023-04-30T06:07:05;1.05;;;0.30;;
13477;SDS011;12598;62.382;17.344;2023-04-30T06:08:07;1.08;;;0.30;;
13477;SDS011;12598;62.382;17.344;2023-04-30T06:09:09;1.40;;;0.30;;
13477;SDS011;12598;62.382;17.344;2023-04-30T06:10:11;2.47;;;0.47;;
13477;SDS011;12598;62.382;17.344;2023-04-30T06:11:13;0.68;;;0.35;;
13477;SDS011;12598;62.382;17.344;2023-04-30T06:12:15;1.67;;;0.40;;
13477;SDS011;12598;62.382;17.344;2023-04-30T06:13:17;1.20;;;0.45;;
13477;SDS011;12598;62.382;17.344;2023-04-30T06:14:19;2.08;;;0.30;;
13477;SDS011;12598;62.382;17.344;2023-04-30T06:15:23;0.70;;;0.38;;
13477;SDS011;12598;62.382;17.344;2023-04-30T06:16:24;0.68;;;0.40;;
13477;SDS011;12598;62.382;17.344;2023-04-30T06:17:26;1.10;;;0.40;;
13477;SDS011;12598;62.382;17.344;2023-04-30T06:18:28;0.75;;;0.20;;
13477;SDS011;12598;62.382;17.344;2023-04-30T06:19:30;1.83;;;0.50;;
13477;SDS011;12598;62.382;17.344;2023-04-30T06:20:32;0.90;;;0.32;;
13477;SDS011;12598;62.382;17.344;2023-04-30T06:21:34;0.82;;;0.40;;
13477;SDS011;12598;62.382;17.344;2023-04-30T06:22:36;0.90;;;0.50;;
13477;SDS011;12598;62.382;17.344;2023-04-30T06:23:38;1.77;;;0.40;;
13477;SDS011;12598;62.382;17.344;2023-04-30T06:24:39;1.20;;;0.50;;
13477;SDS011;12598;62.382;17.344;2023-04-30T06:25:41;0.95;;;0.30;;
13477;SDS011;12598;62.382;17.344;2023-04-30T06:26:43;1.50;;;0.47;;
13477;SDS011;12598;62.382;17.344;2023-04-30T06:27:45;1.80;;;0.55;;